sensor_id;sensor_type;location;lat;lon;timestamp;temperature;humidity
3980;DHT22;2004;52.452;13.120;2023-04-15T00:02:35;8.00;99.90
3980;DHT22;2004;52.452;13.120;2023-04-15T00:10:26;8.00;99.90
3980;DHT22;2004;52.452;13.120;2023-04-15T00:18:17;8.00;99.90
3980;DHT22;2004;52.452;13.120;2023-04-15T00:26:08;8.10;99.90
3980;DHT22;2004;52.452;13.120;2023-04-15T00:33:59;8.10;99.90
3980;DHT22;2004;52.452;13.120;2023-04-15T00:41:49;8.10;99.90
3980;DHT22;2004;52.452;13.120;2023-04-15T00:49:41;8.10;99.90
3980;DHT22;2004;52.452;13.120;2023-04-15T00:57:31;8.10;99.90
3980;DHT22;2004;52.452;13.120;2023-04-15T01:05:22;8.10;99.90
3980;DHT22;2004;52.452;13.120;2023-04-15T01:13:13;8.10;99.90
3980;DHT22;2004;52.452;13.120;2023-04-15T01:21:05;8.10;99.90
3980;DHT22;2004;52.452;13.120;2023-04-15T01:28:56;8.20;99.90
3980;DHT22;2004;52.452;13.120;2023-04-15T01:36:47;8.10;99.90
3980;DHT22;2004;52.452;13.120;2023-04-15T01:44:37;8.10;99.90
3980;DHT22;2004;52.452;13.120;2023-04-15T01:52:28;8.10;99.90
3980;DHT22;2004;52.452;13.120;2023-04-15T02:00:20;8.10;99.90
3980;DHT22;2004;52.452;13.120;2023-04-15T02:08:11;8.20;99.90
3980;DHT22;2004;52.452;13.120;2023-04-15T02:16:02;8.20;99.90
3980;DHT22;2004;52.452;13.120;2023-04-15T02:23:53;8.20;99.90
3980;DHT22;2004;52.452;13.120;2023-04-15T02:31:43;8.20;99.90
3980;DHT22;2004;52.452;13.120;2023-04-15T02:39:34;8.20;99.90
3980;DHT22;2004;52.452;13.120;2023-04-15T02:47:25;8.10;99.90
3980;DHT22;2004;52.452;13.120;2023-04-15T02:55:16;8.10;99.90
3980;DHT22;2004;52.452;13.120;2023-04-15T03:03:07;8.10;99.90
3980;DHT22;2004;52.452;13.120;2023-04-15T03:10:58;8.10;99.90
3980;DHT22;2004;52.452;13.120;2023-04-15T03:18:50;8.20;99.90
3980;DHT22;2004;52.452;13.120;2023-04-15T03:26:40;8.20;99.90
3980;DHT22;2004;52.452;13.120;2023-04-15T03:34:31;8.10;99.90
3980;DHT22;2004;52.452;13.120;2023-04-15T03:42:22;8.20;99.90
3980;DHT22;2004;52.452;13.120;2023-04-15T03:50:12;8.20;99.90
3980;DHT22;2004;52.452;13.120;2023-04-15T03:58:03;8.20;99.90
3980;DHT22;2004;52.452;13.120;2023-04-15T04:05:53;8.20;99.90
3980;DHT22;2004;52.452;13.120;2023-04-15T04:13:44;8.20;99.90
3980;DHT22;2004;52.452;13.120;2023-04-15T04:21:34;8.20;99.90
3980;DHT22;2004;52.452;13.120;2023-04-15T04:29:25;8.20;99.90
3980;DHT22;2004;52.452;13.120;2023-04-15T04:37:16;8.30;99.90
3980;DHT22;2004;52.452;13.120;2023-04-15T04:45:07;8.30;99.90
3980;DHT22;2004;52.452;13.120;2023-04-15T04:52:58;8.40;99.90
3980;DHT22;2004;52.452;13.120;2023-04-15T05:00:48;8.40;99.90
3980;DHT22;2004;52.452;13.120;2023-04-15T05:08:39;8.40;99.90
3980;DHT22;2004;52.452;13.120;2023-04-15T05:16:30;8.50;99.90
3980;DHT22;2004;52.452;13.120;2023-04-15T05:24:21;8.50;99.90
3980;DHT22;2004;52.452;13.120;2023-04-15T05:32:14;8.60;99.90
3980;DHT22;2004;52.452;13.120;2023-04-15T05:40:05;8.60;99.90
3980;DHT22;2004;52.452;13.120;2023-04-15T05:47:55;8.60;99.90
3980;DHT22;2004;52.452;13.120;2023-04-15T05:55:47;8.60;99.90
3980;DHT22;2004;52.452;13.120;2023-04-15T06:03:38;8.70;99.90
3980;DHT22;2004;52.452;13.120;2023-04-15T06:11:29;8.80;99.90
3980;DHT22;2004;52.452;13.120;2023-04-15T06:19:19;8.90;99.90
3980;DHT22;2004;52.452;13.120;2023-04-15T06:27:10;9.00;99.90
3980;DHT22;2004;52.452;13.120;2023-04-15T06:35:00;9.10;99.90
3980;DHT22;2004;52.452;13.120;2023-04-15T06:42:51;9.20;99.90
3980;DHT22;2004;52.452;13.120;2023-04-15T06:50:43;9.30;99.90
3980;DHT22;2004;52.452;13.120;2023-04-15T06:58:33;9.30;99.90
3980;DHT22;2004;52.452;13.120;2023-04-15T07:06:24;9.40;99.90
3980;DHT22;2004;52.452;13.120;2023-04-15T07:14:15;9.60;99.90
3980;DHT22;2004;52.452;13.120;2023-04-15T07:22:05;9.70;99.90
3980;DHT22;2004;52.452;13.120;2023-04-15T07:29:57;9.80;99.90
3980;DHT22;2004;52.452;13.120;2023-04-15T07:37:49;10.00;99.90
3980;DHT22;2004;52.452;13.120;2023-04-15T07:45:39;10.00;99.90
3980;DHT22;2004;52.452;13.120;2023-04-15T07:53:30;10.00;99.90
3980;DHT22;2004;52.452;13.120;2023-04-15T08:01:22;10.00;99.90
3980;DHT22;2004;52.452;13.120;2023-04-15T08:09:12;10.00;99.90
3980;DHT22;2004;52.452;13.120;2023-04-15T08:17:03;10.10;99.90
3980;DHT22;2004;52.452;13.120;2023-04-15T08:24:53;10.00;99.90
3980;DHT22;2004;52.452;13.120;2023-04-15T08:32:45;10.00;99.90
3980;DHT22;2004;52.452;13.120;2023-04-15T08:40:43;10.00;99.90
3980;DHT22;2004;52.452;13.120;2023-04-15T08:48:36;10.00;99.90
3980;DHT22;2004;52.452;13.120;2023-04-15T08:56:30;10.00;99.90
3980;DHT22;2004;52.452;13.120;2023-04-15T09:04:21;10.00;99.90
3980;DHT22;2004;52.452;13.120;2023-04-15T09:12:12;10.00;99.90
3980;DHT22;2004;52.452;13.120;2023-04-15T09:20:14;10.00;99.90
3980;DHT22;2004;52.452;13.120;2023-04-15T09:28:05;10.00;99.90
3980;DHT22;2004;52.452;13.120;2023-04-15T09:35:58;10.00;99.90
3980;DHT22;2004;52.452;13.120;2023-04-15T09:43:49;10.00;99.90
3980;DHT22;2004;52.452;13.120;2023-04-15T09:51:39;10.00;99.90
3980;DHT22;2004;52.452;13.120;2023-04-15T09:59:30;10.00;99.90
3980;DHT22;2004;52.452;13.120;2023-04-15T10:07:21;10.00;99.90
3980;DHT22;2004;52.452;13.120;2023-04-15T10:15:15;10.00;99.90
3980;DHT22;2004;52.452;13.120;2023-04-15T10:23:09;10.00;99.90
3980;DHT22;2004;52.452;13.120;2023-04-15T10:31:01;10.00;99.90
3980;DHT22;2004;52.452;13.120;2023-04-15T10:38:53;10.00;99.90
3980;DHT22;2004;52.452;13.120;2023-04-15T10:46:45;10.00;99.90
3980;DHT22;2004;52.452;13.120;2023-04-15T10:54:36;10.00;99.90
3980;DHT22;2004;52.452;13.120;2023-04-15T11:18:33;10.10;99.90
3980;DHT22;2004;52.452;13.120;2023-04-15T11:26:25;10.20;99.90
3980;DHT22;2004;52.452;13.120;2023-04-15T11:34:21;10.20;99.90
3980;DHT22;2004;52.452;13.120;2023-04-15T11:42:17;10.20;99.90
3980;DHT22;2004;52.452;13.120;2023-04-15T11:58:14;10.20;99.90
3980;DHT22;2004;52.452;13.120;2023-04-15T12:06:09;10.30;99.90
3980;DHT22;2004;52.452;13.120;2023-04-15T12:14:10;10.30;99.90
3980;DHT22;2004;52.452;13.120;2023-04-15T12:22:04;10.20;99.90
3980;DHT22;2004;52.452;13.120;2023-04-15T12:30:05;10.30;99.90
3980;DHT22;2004;52.452;13.120;2023-04-15T12:37:57;10.30;99.90
3980;DHT22;2004;52.452;13.120;2023-04-15T12:45:47;10.40;99.90
3980;DHT22;2004;52.452;13.120;2023-04-15T12:53:38;10.50;99.90
3980;DHT22;2004;52.452;13.120;2023-04-15T13:01:30;10.50;99.90
3980;DHT22;2004;52.452;13.120;2023-04-15T13:09:21;10.50;99.90
3980;DHT22;2004;52.452;13.120;2023-04-15T13:17:13;10.60;99.90
3980;DHT22;2004;52.452;13.120;2023-04-15T13:25:04;10.60;99.90
3980;DHT22;2004;52.452;13.120;2023-04-15T13:32:55;10.70;99.90
3980;DHT22;2004;52.452;13.120;2023-04-15T13:40:45;10.70;99.90
3980;DHT22;2004;52.452;13.120;2023-04-15T13:48:36;10.70;99.90
3980;DHT22;2004;52.452;13.120;2023-04-15T13:56:26;10.70;99.90
3980;DHT22;2004;52.452;13.120;2023-04-15T14:04:18;10.70;99.90
3980;DHT22;2004;52.452;13.120;2023-04-15T14:12:09;10.80;99.90
3980;DHT22;2004;52.452;13.120;2023-04-15T14:20:00;10.80;99.90
3980;DHT22;2004;52.452;13.120;2023-04-15T14:27:51;10.80;99.90
3980;DHT22;2004;52.452;13.120;2023-04-15T14:35:42;10.70;99.90
3980;DHT22;2004;52.452;13.120;2023-04-15T14:43:33;10.70;99.90
3980;DHT22;2004;52.452;13.120;2023-04-15T14:51:23;10.70;99.90
3980;DHT22;2004;52.452;13.120;2023-04-15T14:59:14;10.60;99.90
3980;DHT22;2004;52.452;13.120;2023-04-15T15:07:05;10.60;99.90
3980;DHT22;2004;52.452;13.120;2023-04-15T15:14:55;10.70;99.90
3980;DHT22;2004;52.452;13.120;2023-04-15T15:22:46;10.70;99.90
3980;DHT22;2004;52.452;13.120;2023-04-15T15:30:36;10.70;99.90
3980;DHT22;2004;52.452;13.120;2023-04-15T15:38:27;10.60;99.90
3980;DHT22;2004;52.452;13.120;2023-04-15T15:46:18;10.60;99.90
3980;DHT22;2004;52.452;13.120;2023-04-15T15:54:08;10.60;99.90
3980;DHT22;2004;52.452;13.120;2023-04-15T16:02:00;10.60;99.90
3980;DHT22;2004;52.452;13.120;2023-04-15T16:09:51;10.60;99.90
3980;DHT22;2004;52.452;13.120;2023-04-15T16:17:41;10.60;99.90
3980;DHT22;2004;52.452;13.120;2023-04-15T16:25:32;10.50;99.90
3980;DHT22;2004;52.452;13.120;2023-04-15T16:33:22;10.50;99.90
3980;DHT22;2004;52.452;13.120;2023-04-15T16:41:14;10.50;99.90
3980;DHT22;2004;52.452;13.120;2023-04-15T16:49:06;10.50;99.90
3980;DHT22;2004;52.452;13.120;2023-04-15T16:56:57;10.50;99.90
3980;DHT22;2004;52.452;13.120;2023-04-15T17:04:48;10.50;99.90
3980;DHT22;2004;52.452;13.120;2023-04-15T17:12:40;10.50;99.90
3980;DHT22;2004;52.452;13.120;2023-04-15T17:20:30;10.50;99.90
3980;DHT22;2004;52.452;13.120;2023-04-15T17:28:21;10.50;99.90
3980;DHT22;2004;52.452;13.120;2023-04-15T17:36:11;10.50;99.90
3980;DHT22;2004;52.452;13.120;2023-04-15T17:44:02;10.50;99.90
3980;DHT22;2004;52.452;13.120;2023-04-15T17:51:52;10.50;99.90
3980;DHT22;2004;52.452;13.120;2023-04-15T17:59:44;10.40;99.90
3980;DHT22;2004;52.452;13.120;2023-04-15T18:07:36;10.40;99.90
3980;DHT22;2004;52.452;13.120;2023-04-15T18:15:30;10.40;99.90
3980;DHT22;2004;52.452;13.120;2023-04-15T18:23:21;10.40;99.90
3980;DHT22;2004;52.452;13.120;2023-04-15T18:31:12;10.40;99.90
3980;DHT22;2004;52.452;13.120;2023-04-15T18:39:02;10.40;99.90
3980;DHT22;2004;52.452;13.120;2023-04-15T18:46:53;10.40;99.90
3980;DHT22;2004;52.452;13.120;2023-04-15T18:54:45;10.40;99.90
3980;DHT22;2004;52.452;13.120;2023-04-15T19:02:36;10.40;99.90
3980;DHT22;2004;52.452;13.120;2023-04-15T19:10:27;10.40;99.90
3980;DHT22;2004;52.452;13.120;2023-04-15T19:18:17;10.40;99.90
3980;DHT22;2004;52.452;13.120;2023-04-15T19:26:08;10.40;99.90
3980;DHT22;2004;52.452;13.120;2023-04-15T19:33:59;10.30;99.90
3980;DHT22;2004;52.452;13.120;2023-04-15T19:41:50;10.30;99.90
3980;DHT22;2004;52.452;13.120;2023-04-15T19:49:42;10.30;99.90
3980;DHT22;2004;52.452;13.120;2023-04-15T19:57:33;10.30;99.90
3980;DHT22;2004;52.452;13.120;2023-04-15T20:05:24;10.30;99.90
3980;DHT22;2004;52.452;13.120;2023-04-15T20:13:14;10.20;99.90
3980;DHT22;2004;52.452;13.120;2023-04-15T20:21:05;10.30;99.90
3980;DHT22;2004;52.452;13.120;2023-04-15T20:28:57;10.20;99.90
3980;DHT22;2004;52.452;13.120;2023-04-15T20:36:48;10.20;99.90
3980;DHT22;2004;52.452;13.120;2023-04-15T20:44:38;10.20;99.90
3980;DHT22;2004;52.452;13.120;2023-04-15T20:52:29;10.20;99.90
3980;DHT22;2004;52.452;13.120;2023-04-15T21:00:20;10.20;99.90
3980;DHT22;2004;52.452;13.120;2023-04-15T21:08:11;10.20;99.90
3980;DHT22;2004;52.452;13.120;2023-04-15T21:16:02;10.10;99.90
3980;DHT22;2004;52.452;13.120;2023-04-15T21:23:52;10.10;99.90
3980;DHT22;2004;52.452;13.120;2023-04-15T21:31:43;10.10;99.90
3980;DHT22;2004;52.452;13.120;2023-04-15T21:39:33;10.10;99.90
3980;DHT22;2004;52.452;13.120;2023-04-15T21:47:24;10.10;99.90
3980;DHT22;2004;52.452;13.120;2023-04-15T21:55:15;10.10;99.90
3980;DHT22;2004;52.452;13.120;2023-04-15T22:03:05;10.10;99.90
3980;DHT22;2004;52.452;13.120;2023-04-15T22:10:56;10.10;99.90
3980;DHT22;2004;52.452;13.120;2023-04-15T22:18:46;10.10;99.90
3980;DHT22;2004;52.452;13.120;2023-04-15T22:26:38;10.10;99.90
3980;DHT22;2004;52.452;13.120;2023-04-15T22:34:28;10.10;99.90
3980;DHT22;2004;52.452;13.120;2023-04-15T22:42:19;10.10;99.90
3980;DHT22;2004;52.452;13.120;2023-04-15T22:50:09;10.10;99.90
3980;DHT22;2004;52.452;13.120;2023-04-15T22:58:00;10.00;99.90
3980;DHT22;2004;52.452;13.120;2023-04-15T23:05:50;10.00;99.90
3980;DHT22;2004;52.452;13.120;2023-04-15T23:13:41;10.00;99.90
3980;DHT22;2004;52.452;13.120;2023-04-15T23:21:33;10.00;99.90
3980;DHT22;2004;52.452;13.120;2023-04-15T23:29:23;10.00;99.90
3980;DHT22;2004;52.452;13.120;2023-04-15T23:37:16;10.00;99.90
3980;DHT22;2004;52.452;13.120;2023-04-15T23:45:11;10.00;99.90
3980;DHT22;2004;52.452;13.120;2023-04-15T23:53:01;10.00;99.90
